Time;durP1;ratioP1;P1;durP2;ratioP2;P2;SDS_P1;SDS_P2;PMS_P1;PMS_P2;Temp;Humidity;BMP_temperature;BMP_pressure;BME280_temperature;BME280_humidity;BME280_pressure;Samples;Min_cycle;Max_cycle;Signal;HPM_P1;HPM_P2
2022/10/06 00:02:11;;;;;;;;;;;22.70;48.80;21.50;101504.00;;;;5093585;28;19946;-70
2022/10/06 00:04:57;;;;;;;;;;;22.70;48.80;21.50;101512.00;;;;5086854;28;19920;-70
2022/10/06 00:07:43;;;;;;;;;;;22.70;48.70;21.50;101524.00;;;;5089851;28;19916;-71
2022/10/06 00:10:29;;;;;;;;;;;22.70;48.70;21.40;101534.00;;;;5095024;28;19946;-70
2022/10/06 00:13:15;;;;;;;;;;;22.60;48.70;21.40;101536.00;;;;5094401;28;19953;-71
2022/10/06 00:16:07;;;;;;;;;;;22.70;49.40;21.40;101537.00;;;;5097796;28;19938;-71
2022/10/06 00:18:53;;;;;;;;;;;22.70;48.70;21.40;101544.00;;;;5102964;28;19931;-71
2022/10/06 00:21:39;;;;;;;;;;;22.70;48.70;21.40;101552.00;;;;5091629;28;20423;-71
2022/10/06 00:24:26;;;;;;;;;;;22.70;48.70;21.40;101560.00;;;;5104889;28;19961;-70
2022/10/06 00:27:12;;;;;;;;;;;22.70;48.70;21.40;101549.00;;;;5095684;28;19931;-70
2022/10/06 00:29:58;;;;;;;;;;;22.60;48.70;21.40;101561.00;;;;5098310;28;19988;-70
2022/10/06 00:32:51;;;;;;;;;;;22.60;48.70;21.40;101567.00;;;;5089994;28;19920;-70
2022/10/06 00:35:37;;;;;;;;;;;22.60;48.70;21.40;101581.00;;;;5113123;27;19924;-70
2022/10/06 00:38:23;;;;;;;;;;;22.60;48.70;21.30;101576.00;;;;5095409;28;19915;-70
2022/10/06 00:41:13;;;;;;;;;;;22.60;48.70;21.30;101586.00;;;;5093626;28;19915;-70
2022/10/06 00:43:59;;;;;;;;;;;22.60;48.80;21.30;101591.00;;;;5109955;27;19920;-70
2022/10/06 00:46:49;;;;;;;;;;;22.50;48.70;21.30;101591.00;;;;5101806;28;19920;-70
2022/10/06 00:49:35;;;;;;;;;;;22.60;48.80;21.30;101586.00;;;;5093814;28;19920;-71
2022/10/06 00:52:23;;;;;;;;;;;22.60;48.80;21.30;101599.00;;;;5111581;27;20084;-71
2022/10/06 00:55:09;;;;;;;;;;;22.60;48.80;21.30;101603.00;;;;5109689;27;19927;-71
2022/10/06 00:57:55;;;;;;;;;;;22.50;48.80;21.30;101620.00;;;;5086023;28;19927;-70
2022/10/06 01:00:41;;;;;;;;;;;22.60;49.50;21.30;101626.00;;;;5106825;27;20445;-70
2022/10/06 01:03:30;;;;;;;;;;;22.50;48.80;21.30;101629.00;;;;5099646;28;19984;-70
2022/10/06 01:06:16;;;;;;;;;;;22.50;48.90;21.30;101626.00;;;;5065874;28;20038;-71
2022/10/06 01:09:02;;;;;;;;;;;22.50;48.90;21.30;101624.00;;;;5092062;28;19920;-71
2022/10/06 01:11:51;;;;;;;;;;;22.50;48.90;21.30;101618.00;;;;5102728;28;19920;-71
2022/10/06 01:14:38;;;;;;;;;;;22.50;48.90;21.20;101631.00;;;;5090790;28;19933;-70
2022/10/06 01:17:31;;;;;;;;;;;22.50;48.90;21.20;101644.00;;;;5085779;28;20358;-71
2022/10/06 01:20:17;;;;;;;;;;;22.50;48.90;21.20;101658.00;;;;5080278;28;20384;-71
2022/10/06 01:23:08;;;;;;;;;;;22.50;48.90;21.20;101649.00;;;;5097564;28;19924;-70
2022/10/06 01:25:55;;;;;;;;;;;22.50;48.90;21.20;101657.00;;;;5090374;28;19926;-71
2022/10/06 01:28:41;;;;;;;;;;;22.50;48.90;21.20;101662.00;;;;5094292;28;20280;-70
2022/10/06 01:31:27;;;;;;;;;;;22.50;48.90;21.20;101656.00;;;;5091155;28;20365;-71
2022/10/06 01:34:13;;;;;;;;;;;22.50;48.90;21.20;101666.00;;;;5096929;28;19919;-71
2022/10/06 01:36:59;;;;;;;;;;;22.40;48.80;21.20;101673.00;;;;5096082;28;19916;-70
2022/10/06 01:39:45;;;;;;;;;;;22.50;48.90;21.20;101678.00;;;;5070792;28;20327;-70
2022/10/06 01:42:32;;;;;;;;;;;22.50;48.90;21.20;101685.00;;;;5093197;28;19942;-70
2022/10/06 01:45:18;;;;;;;;;;;22.50;48.90;21.20;101677.00;;;;5091307;28;20363;-71
2022/10/06 01:48:04;;;;;;;;;;;22.50;48.90;21.20;101685.00;;;;5097072;28;20353;-71
2022/10/06 01:50:50;;;;;;;;;;;22.50;48.90;21.20;101689.00;;;;5094809;28;20428;-70
2022/10/06 01:53:36;;;;;;;;;;;22.50;48.90;21.20;101696.00;;;;5096547;28;20236;-70
2022/10/06 01:56:22;;;;;;;;;;;22.50;48.90;21.20;101700.00;;;;5090262;28;19915;-70
2022/10/06 01:59:08;;;;;;;;;;;22.40;48.80;21.20;101703.00;;;;5095610;28;20529;-70
2022/10/06 02:01:54;;;;;;;;;;;22.40;48.80;21.20;101708.00;;;;5098746;28;19920;-70
2022/10/06 02:04:40;;;;;;;;;;;22.50;48.90;21.20;101715.00;;;;5092025;28;20118;-70
2022/10/06 02:07:26;;;;;;;;;;;22.40;48.80;21.20;101719.00;;;;5097114;28;20367;-70
2022/10/06 02:10:12;;;;;;;;;;;22.40;48.80;21.20;101731.00;;;;5094358;28;19946;-70
2022/10/06 02:12:58;;;;;;;;;;;22.40;48.80;21.20;101733.00;;;;5084028;28;20493;-70
2022/10/06 02:15:44;;;;;;;;;;;22.40;48.80;21.20;101745.00;;;;5097329;28;19920;-70
2022/10/06 02:18:32;;;;;;;;;;;22.40;48.80;21.20;101747.00;;;;5077960;28;20348;-71
2022/10/06 02:21:18;;;;;;;;;;;22.40;48.80;21.20;101765.00;;;;5098376;28;20384;-70
2022/10/06 02:24:04;;;;;;;;;;;22.50;48.80;21.20;101759.00;;;;5105111;27;20031;-71
2022/10/06 02:26:51;;;;;;;;;;;22.40;48.70;21.20;101760.00;;;;5085902;28;20269;-70
2022/10/06 02:29:37;;;;;;;;;;;22.50;48.80;21.20;101758.00;;;;5095522;28;20086;-70
2022/10/06 02:32:23;;;;;;;;;;;22.40;48.70;21.20;101759.00;;;;5093204;28;19923;-70
2022/10/06 02:35:11;;;;;;;;;;;22.50;48.80;21.20;101762.00;;;;5095891;28;19927;-71
2022/10/06 02:37:57;;;;;;;;;;;22.40;48.70;21.20;101773.00;;;;5094903;28;19919;-70
2022/10/06 02:40:43;;;;;;;;;;;22.50;48.80;21.20;101773.00;;;;5074550;28;19924;-71
2022/10/06 02:43:30;;;;;;;;;;;22.50;48.70;21.20;101782.00;;;;5081940;28;19916;-71
2022/10/06 02:46:17;;;;;;;;;;;22.40;48.70;21.20;101788.00;;;;5081665;28;20137;-70
2022/10/06 02:49:03;;;;;;;;;;;22.40;48.70;21.20;101782.00;;;;5078698;28;19928;-71
2022/10/06 02:51:50;;;;;;;;;;;22.40;48.60;21.20;101787.00;;;;5074596;28;19916;-70
2022/10/06 02:54:36;;;;;;;;;;;22.40;48.60;21.20;101794.00;;;;5079834;28;19920;-71
2022/10/06 02:57:22;;;;;;;;;;;22.40;48.60;21.10;101804.00;;;;5071417;28;19920;-70
2022/10/06 03:00:09;;;;;;;;;;;22.40;48.60;21.10;101801.00;;;;5072461;28;19959;-71
2022/10/06 03:02:55;;;;;;;;;;;22.40;48.60;21.10;101814.00;;;;5094245;28;20286;-70
2022/10/06 03:05:41;;;;;;;;;;;22.40;48.60;21.10;101823.00;;;;5095185;28;20295;-70
2022/10/06 03:08:27;;;;;;;;;;;22.40;48.60;21.10;101825.00;;;;5093974;28;19927;-71
2022/10/06 03:11:13;;;;;;;;;;;22.40;48.50;21.10;101822.00;;;;5110106;27;19923;-70
2022/10/06 03:13:59;;;;;;;;;;;22.40;48.50;21.10;101837.00;;;;5092590;28;19963;-70
2022/10/06 03:16:45;;;;;;;;;;;22.30;48.50;21.10;101836.00;;;;5108315;27;20042;-71
2022/10/06 03:19:31;;;;;;;;;;;22.40;48.50;21.10;101838.00;;;;5089235;28;19923;-71
2022/10/06 03:22:17;;;;;;;;;;;22.30;48.50;21.10;101843.00;;;;5109634;27;19923;-70
2022/10/06 03:25:04;;;;;;;;;;;22.30;48.50;21.10;101839.00;;;;5079092;28;19916;-71
2022/10/06 03:27:50;;;;;;;;;;;22.30;48.50;21.10;101844.00;;;;5077297;28;19938;-71
2022/10/06 03:30:35;;;;;;;;;;;22.40;48.60;21.10;101850.00;;;;5078349;28;19992;-70
2022/10/06 03:33:21;;;;;;;;;;;22.30;48.50;21.10;101858.00;;;;5072910;28;20396;-70
2022/10/06 03:36:11;;;;;;;;;;;22.30;48.50;21.10;101872.00;;;;5089720;28;19920;-70
2022/10/06 03:38:57;;;;;;;;;;;22.30;48.50;21.10;101874.00;;;;5076618;28;19924;-70
2022/10/06 03:41:43;;;;;;;;;;;22.30;48.40;21.10;101875.00;;;;5093612;28;19946;-70
2022/10/06 03:44:31;;;;;;;;;;;22.30;48.50;21.10;101874.00;;;;5087467;28;19916;-71
2022/10/06 03:47:18;;;;;;;;;;;22.40;48.50;21.20;101887.00;;;;5095012;28;20031;-70
2022/10/06 03:50:04;;;;;;;;;;;22.30;48.40;21.20;101892.00;;;;5096727;28;20010;-71
2022/10/06 03:52:51;;;;;;;;;;;22.30;48.40;21.20;101902.00;;;;5067089;28;19920;-70
2022/10/06 03:55:37;;;;;;;;;;;22.40;48.50;21.20;101901.00;;;;5083743;28;19924;-71
2022/10/06 03:58:23;;;;;;;;;;;22.40;48.50;21.20;101913.00;;;;5075801;28;19920;-70
2022/10/06 04:01:12;;;;;;;;;;;22.30;48.40;21.20;101918.00;;;;5081309;28;19916;-71
2022/10/06 04:03:58;;;;;;;;;;;22.40;48.40;21.20;101924.00;;;;5073811;28;19940;-70
2022/10/06 04:06:44;;;;;;;;;;;22.30;48.40;21.10;101926.00;;;;5060736;28;19920;-70
2022/10/06 04:09:30;;;;;;;;;;;22.40;48.40;21.10;101940.00;;;;5074910;28;19915;-71
2022/10/06 04:12:16;;;;;;;;;;;22.40;48.40;21.10;101937.00;;;;5072385;28;19920;-70
2022/10/06 04:15:02;;;;;;;;;;;22.30;48.30;21.10;101945.00;;;;5080251;28;19994;-70
2022/10/06 04:17:48;;;;;;;;;;;22.40;48.40;21.10;101952.00;;;;5071252;28;19971;-71
2022/10/06 04:20:34;;;;;;;;;;;22.30;48.30;21.10;101949.00;;;;5084727;28;20372;-70
2022/10/06 04:23:20;;;;;;;;;;;22.30;48.30;21.10;101966.00;;;;5066657;28;19926;-70
2022/10/06 04:26:09;;;;;;;;;;;22.30;48.30;21.10;101962.00;;;;5078241;28;20361;-70
2022/10/06 04:28:56;;;;;;;;;;;22.30;48.30;21.10;101977.00;;;;5064603;28;19941;-70
2022/10/06 04:31:42;;;;;;;;;;;22.30;48.20;21.10;101975.00;;;;5063713;28;19916;-70
2022/10/06 04:34:28;;;;;;;;;;;22.30;48.20;21.10;101975.00;;;;5091983;28;20274;-71
2022/10/06 04:37:14;;;;;;;;;;;22.30;48.20;21.10;101984.00;;;;5085107;28;20416;-71
2022/10/06 04:40:00;;;;;;;;;;;22.30;48.10;21.10;101990.00;;;;5072280;28;20393;-71
2022/10/06 04:42:46;;;;;;;;;;;22.30;48.10;21.10;101992.00;;;;5079775;28;19923;-71
2022/10/06 04:45:32;;;;;;;;;;;22.40;48.20;21.10;102006.00;;;;5093875;28;19923;-71
2022/10/06 04:48:18;;;;;;;;;;;22.30;48.10;21.10;101995.00;;;;5085290;28;19931;-70
2022/10/06 04:51:05;;;;;;;;;;;22.30;48.10;21.10;101999.00;;;;5086246;28;20006;-71
2022/10/06 04:53:51;;;;;;;;;;;22.30;48.10;21.10;102011.00;;;;5055540;28;19920;-71
2022/10/06 04:56:37;;;;;;;;;;;22.30;48.00;21.10;102011.00;;;;5079418;28;19916;-71
2022/10/06 05:00:21;;;;;;;;;;;22.30;48.00;21.00;102012.00;;;;5069422;28;19924;-70
2022/10/06 05:02:29;;;;;;;;;;;22.30;48.00;21.00;102029.00;;;;5079158;28;20395;-70
2022/10/06 05:05:15;;;;;;;;;;;22.30;47.90;21.00;102018.00;;;;5077310;28;19920;-70
2022/10/06 05:08:01;;;;;;;;;;;22.30;47.90;21.00;102033.00;;;;5069848;28;19978;-70
2022/10/06 05:10:47;;;;;;;;;;;22.30;47.90;21.00;102040.00;;;;5080682;28;19920;-70
2022/10/06 05:13:33;;;;;;;;;;;22.20;47.90;21.00;102048.00;;;;5067872;28;19924;-70
2022/10/06 05:16:19;;;;;;;;;;;22.30;47.90;21.00;102049.00;;;;5065375;28;20010;-70
2022/10/06 05:19:07;;;;;;;;;;;22.20;47.90;21.00;102064.00;;;;5085070;28;20309;-70
2022/10/06 05:21:52;;;;;;;;;;;22.30;48.00;21.00;102064.00;;;;5075387;28;20277;-70
2022/10/06 05:24:39;;;;;;;;;;;22.30;47.90;21.00;102077.00;;;;5076451;28;20384;-70
2022/10/06 05:27:24;;;;;;;;;;;22.20;47.90;21.00;102077.00;;;;5079274;28;20003;-71
2022/10/06 05:30:10;;;;;;;;;;;22.20;47.90;21.00;102077.00;;;;5080164;28;19920;-70
2022/10/06 05:32:56;;;;;;;;;;;22.20;48.00;21.00;102081.00;;;;5074780;28;19920;-70
2022/10/06 05:35:50;;;;;;;;;;;22.20;48.00;21.00;102088.00;;;;5079930;28;19963;-70
2022/10/06 05:38:36;;;;;;;;;;;22.20;48.10;21.00;102101.00;;;;5078545;28;19924;-70
2022/10/06 05:41:27;;;;;;;;;;;22.20;48.10;21.00;102099.00;;;;5077597;28;20369;-70
2022/10/06 05:44:13;;;;;;;;;;;22.20;48.10;21.00;102096.00;;;;5079450;28;20281;-70
2022/10/06 05:46:59;;;;;;;;;;;22.20;48.10;21.00;102109.00;;;;5075009;28;20381;-70
2022/10/06 05:49:45;;;;;;;;;;;22.20;48.10;21.00;102105.00;;;;5061179;28;19920;-70
2022/10/06 05:52:31;;;;;;;;;;;22.20;48.10;21.00;102116.00;;;;5071131;28;19966;-70
2022/10/06 05:55:17;;;;;;;;;;;22.20;48.10;21.00;102119.00;;;;5064719;28;19934;-70
2022/10/06 05:58:03;;;;;;;;;;;22.20;48.80;21.00;102118.00;;;;5072429;28;19928;-70
2022/10/06 06:00:49;;;;;;;;;;;22.20;48.20;21.00;102120.00;;;;5077833;28;19974;-70
2022/10/06 06:03:36;;;;;;;;;;;22.20;48.20;21.00;102133.00;;;;5079095;28;20235;-70
2022/10/06 06:06:24;;;;;;;;;;;22.20;48.10;21.00;102139.00;;;;5088186;27;19963;-70
2022/10/06 06:09:15;;;;;;;;;;;22.20;48.20;21.00;102151.00;;;;5071317;28;19916;-70
2022/10/06 06:12:01;;;;;;;;;;;22.20;48.10;21.00;102144.00;;;;5085721;27;19920;-70
2022/10/06 06:17:51;;;;;;;;;;;22.20;48.20;21.00;102153.00;;;;5074380;28;19973;-70
2022/10/06 06:20:37;;;;;;;;;;;22.10;48.10;21.00;102162.00;;;;5074053;28;19917;-70
2022/10/06 06:23:23;;;;;;;;;;;22.20;48.20;21.00;102169.00;;;;5077857;28;19920;-70
2022/10/06 06:26:11;;;;;;;;;;;22.20;48.20;21.00;102171.00;;;;5071265;28;19920;-70
2022/10/06 06:29:05;;;;;;;;;;;22.30;48.20;21.00;102175.00;;;;5058953;28;19920;-71
2022/10/06 06:31:51;;;;;;;;;;;22.20;48.10;21.00;102179.00;;;;5086256;27;20250;-70
2022/10/06 06:34:37;;;;;;;;;;;22.20;48.10;21.00;102183.00;;;;5069884;28;19925;-70
2022/10/06 06:37:23;;;;;;;;;;;22.20;48.10;21.00;102191.00;;;;5079749;28;19919;-70
2022/10/06 06:40:09;;;;;;;;;;;22.20;48.10;21.00;102195.00;;;;5086805;27;19920;-70
2022/10/06 06:42:54;;;;;;;;;;;22.20;48.10;21.00;102195.00;;;;5073618;28;19920;-70
2022/10/06 06:45:40;;;;;;;;;;;22.20;48.10;21.00;102206.00;;;;5074186;28;19916;-70
2022/10/06 06:48:27;;;;;;;;;;;22.20;48.00;21.00;102214.00;;;;5075223;28;19920;-70
2022/10/06 06:51:12;;;;;;;;;;;22.20;48.00;21.00;102216.00;;;;5077310;28;19924;-70
2022/10/06 06:54:01;;;;;;;;;;;22.20;47.90;21.00;102224.00;;;;5074690;28;19965;-70
2022/10/06 06:56:47;;;;;;;;;;;22.20;47.90;21.00;102227.00;;;;5073948;28;20357;-70
2022/10/06 06:59:33;;;;;;;;;;;22.20;47.90;21.00;102226.00;;;;5073622;28;19931;-70
2022/10/06 07:02:20;;;;;;;;;;;22.20;47.90;21.00;102232.00;;;;5074525;28;19927;-70
2022/10/06 07:05:06;;;;;;;;;;;22.20;47.90;21.00;102230.00;;;;5075493;28;19920;-70
2022/10/06 07:07:52;;;;;;;;;;;22.20;47.90;21.00;102236.00;;;;5070275;28;19931;-70
2022/10/06 07:10:38;;;;;;;;;;;22.20;47.90;21.00;102233.00;;;;5077206;28;19927;-70
2022/10/06 07:13:24;;;;;;;;;;;22.10;47.80;20.90;102236.00;;;;5078112;28;20345;-70
2022/10/06 07:25:28;;;;;;;;;;;22.20;47.90;20.90;102272.00;;;;5084806;28;19938;-70
2022/10/06 07:28:15;;;;;;;;;;;22.10;47.80;20.90;102275.00;;;;5078626;28;19917;-70
2022/10/06 07:31:01;;;;;;;;;;;22.10;47.80;20.90;102276.00;;;;5075598;28;19924;-70
2022/10/06 07:33:47;;;;;;;;;;;22.10;47.80;20.90;102279.00;;;;5071858;28;19920;-70
2022/10/06 07:36:39;;;;;;;;;;;22.20;47.90;20.90;102281.00;;;;5082052;28;19959;-70
2022/10/06 07:39:25;;;;;;;;;;;22.10;47.80;20.90;102278.00;;;;5076187;28;19917;-70
2022/10/06 07:42:13;;;;;;;;;;;22.10;47.80;20.90;102293.00;;;;5060986;28;19917;-70
2022/10/06 07:48:05;;;;;;;;;;;22.10;47.80;20.90;102296.00;;;;5080930;28;19920;-70
2022/10/06 07:50:51;;;;;;;;;;;22.10;47.80;20.90;102310.00;;;;5083402;28;20685;-70
2022/10/06 07:53:37;;;;;;;;;;;22.10;47.80;20.90;102311.00;;;;5087107;27;19920;-70
2022/10/06 07:56:23;;;;;;;;;;;22.10;47.80;20.90;102319.00;;;;5087647;28;20391;-70
2022/10/06 07:59:09;;;;;;;;;;;22.10;47.80;20.90;102312.00;;;;5076202;28;19927;-70
2022/10/06 08:01:55;;;;;;;;;;;22.10;47.80;20.80;102309.00;;;;5083421;28;19959;-71
2022/10/06 08:04:41;;;;;;;;;;;22.10;47.80;20.80;102316.00;;;;5075061;28;19965;-71
2022/10/06 08:07:27;;;;;;;;;;;22.10;47.80;20.80;102317.00;;;;5087070;28;20286;-70
2022/10/06 08:10:17;;;;;;;;;;;22.10;47.80;20.80;102326.00;;;;5072868;28;19989;-70
2022/10/06 08:13:04;;;;;;;;;;;22.10;47.80;20.80;102329.00;;;;5071675;28;19931;-70
2022/10/06 08:15:50;;;;;;;;;;;22.10;47.80;20.80;102331.00;;;;5058866;28;19921;-70
2022/10/06 08:18:36;;;;;;;;;;;22.10;47.80;20.80;102330.00;;;;5088197;28;19920;-70
2022/10/06 08:21:24;;;;;;;;;;;22.10;47.80;20.80;102338.00;;;;5076783;28;19920;-70
2022/10/06 08:24:10;;;;;;;;;;;22.00;47.70;20.80;102349.00;;;;5085793;28;20014;-70
2022/10/06 08:26:56;;;;;;;;;;;22.10;47.70;20.80;102362.00;;;;5073919;28;19928;-71
2022/10/06 08:29:42;;;;;;;;;;;22.10;47.70;20.80;102359.00;;;;5073020;28;19921;-70
2022/10/06 08:32:28;;;;;;;;;;;22.00;47.70;20.80;102362.00;;;;5068313;28;19916;-71
2022/10/06 08:35:15;;;;;;;;;;;22.00;47.70;20.80;102370.00;;;;5077903;28;19928;-71
2022/10/06 08:38:01;;;;;;;;;;;22.00;47.70;20.80;102374.00;;;;5071634;28;19921;-71
2022/10/06 08:40:47;;;;;;;;;;;22.10;47.70;20.80;102386.00;;;;5067899;28;20121;-71
2022/10/06 08:43:33;;;;;;;;;;;22.00;47.70;20.80;102382.00;;;;5077349;28;19924;-71
2022/10/06 08:46:20;;;;;;;;;;;22.10;47.70;20.80;102376.00;;;;5081623;28;20360;-71
2022/10/06 08:49:06;;;;;;;;;;;22.00;47.70;20.80;102388.00;;;;5090409;28;19984;-70
2022/10/06 08:52:02;;;;;;;;;;;22.10;47.70;20.70;102391.00;;;;5098270;28;19956;-71
2022/10/06 08:55:13;;;;;;;;;;;22.00;47.60;20.70;102403.00;;;;5103434;28;20397;-70
2022/10/06 08:58:29;;;;;;;;;;;22.00;47.60;20.70;102408.00;;;;5071444;28;20030;-71
2022/10/06 09:01:23;;;;;;;;;;;22.00;47.60;20.70;102404.00;;;;5055553;28;19927;-70
2022/10/06 09:04:12;;;;;;;;;;;22.00;47.60;20.70;102413.00;;;;5085417;28;20434;-71
2022/10/06 09:07:12;;;;;;;;;;;22.00;47.60;20.80;102417.00;;;;5088572;28;19916;-70
2022/10/06 09:10:16;;;;;;;;;;;22.00;47.80;20.80;102426.00;;;;5052154;28;19974;-71
2022/10/06 09:13:08;;;;;;;;;;;21.90;47.60;20.80;102422.00;;;;5084957;27;19966;-71
2022/10/06 09:16:06;;;;;;;;;;;22.00;47.70;20.80;102423.00;;;;5075538;28;19931;-70
2022/10/06 09:18:57;;;;;;;;;;;22.00;47.70;20.80;102431.00;;;;5080529;28;20380;-71
2022/10/06 09:21:49;;;;;;;;;;;22.00;47.70;20.80;102433.00;;;;5071571;28;19920;-71
2022/10/06 09:24:41;;;;;;;;;;;22.00;47.50;20.80;102436.00;;;;5067067;28;19921;-70
2022/10/06 09:27:32;;;;;;;;;;;22.00;47.50;20.80;102435.00;;;;5077939;28;19920;-71
2022/10/06 09:30:18;;;;;;;;;;;22.10;47.60;20.80;102437.00;;;;5077092;28;19916;-71
2022/10/06 09:33:04;;;;;;;;;;;22.00;47.60;20.80;102447.00;;;;5088866;28;19916;-70
2022/10/06 09:36:23;;;;;;;;;;;22.00;47.50;20.80;102443.00;;;;5065994;28;19931;-72
2022/10/06 09:39:09;;;;;;;;;;;22.10;47.50;20.80;102434.00;;;;5066792;28;19962;-78
2022/10/06 09:41:55;;;;;;;;;;;22.00;47.40;20.80;102438.00;;;;5062274;28;20388;-71
2022/10/06 09:44:50;;;;;;;;;;;22.00;47.40;20.80;102445.00;;;;5070786;28;19978;-71
2022/10/06 09:47:43;;;;;;;;;;;22.10;47.40;20.80;102450.00;;;;5066203;28;19920;-71
2022/10/06 09:50:29;;;;;;;;;;;22.10;47.30;20.70;102446.00;;;;5068883;28;19920;-70
2022/10/06 09:53:15;;;;;;;;;;;22.10;47.30;20.70;102445.00;;;;5096669;27;20473;-71
2022/10/06 09:56:11;;;;;;;;;;;22.00;47.20;20.70;102452.00;;;;5072582;28;20338;-74
2022/10/06 09:58:58;;;;;;;;;;;22.00;47.20;20.70;102442.00;;;;5054243;28;20597;-70
2022/10/06 10:01:52;;;;;;;;;;;22.00;47.30;20.80;102452.00;;;;5068598;28;19998;-70
2022/10/06 10:04:39;;;;;;;;;;;22.10;48.10;20.80;102453.00;;;;5074739;28;20289;-70
2022/10/06 10:07:26;;;;;;;;;;;22.10;47.30;20.80;102456.00;;;;5080164;27;19935;-70
2022/10/06 10:10:22;;;;;;;;;;;22.10;47.20;20.80;102468.00;;;;5080980;28;19923;-70
2022/10/06 10:13:25;;;;;;;;;;;22.10;47.20;20.80;102470.00;;;;5070025;28;19921;-70
2022/10/06 10:16:15;;;;;;;;;;;22.10;47.20;20.80;102470.00;;;;5071861;28;19924;-70
2022/10/06 10:19:01;;;;;;;;;;;22.10;47.20;20.80;102474.00;;;;5072181;28;20303;-70
2022/10/06 10:21:47;;;;;;;;;;;22.10;47.20;20.80;102477.00;;;;5089109;28;19920;-70
2022/10/06 10:24:36;;;;;;;;;;;22.10;47.20;20.80;102478.00;;;;5058306;28;19973;-70
2022/10/06 10:27:50;;;;;;;;;;;22.10;47.10;20.80;102478.00;;;;5072924;28;19973;-70
2022/10/06 10:30:44;;;;;;;;;;;22.10;47.20;20.80;102474.00;;;;5083186;28;19920;-70
2022/10/06 10:33:45;;;;;;;;;;;22.10;47.20;20.80;102483.00;;;;5071036;28;19923;-70
2022/10/06 10:36:39;;;;;;;;;;;22.10;47.20;20.80;102482.00;;;;5078489;28;19920;-70
2022/10/06 10:39:32;;;;;;;;;;;22.10;47.20;20.80;102477.00;;;;5091357;28;19999;-70
2022/10/06 10:42:46;;;;;;;;;;;22.10;47.20;20.80;102476.00;;;;5080273;28;19924;-70
2022/10/06 10:45:34;;;;;;;;;;;22.10;47.10;20.80;102480.00;;;;5084280;28;19927;-70
2022/10/06 10:48:43;;;;;;;;;;;22.10;47.20;20.80;102483.00;;;;5090125;28;19962;-70
2022/10/06 10:51:31;;;;;;;;;;;22.10;47.10;20.90;102472.00;;;;5057735;28;19924;-70
2022/10/06 10:54:20;;;;;;;;;;;22.10;47.00;20.80;102487.00;;;;5075097;28;19923;-70
2022/10/06 10:57:09;;;;;;;;;;;22.20;47.00;20.90;102486.00;;;;5049913;28;20011;-70
2022/10/06 10:59:54;;;;;;;;;;;22.10;47.00;20.90;102484.00;;;;5058339;28;20280;-70
2022/10/06 11:02:40;;;;;;;;;;;22.20;47.00;20.90;102492.00;;;;5079521;28;20315;-70
2022/10/06 11:05:49;;;;;;;;;;;22.20;47.00;20.90;102484.00;;;;5072738;28;19927;-70
2022/10/06 11:09:16;;;;;;;;;;;22.20;46.90;20.90;102487.00;;;;5071345;28;19930;-70
2022/10/06 11:12:11;;;;;;;;;;;22.20;46.80;20.90;102484.00;;;;5050232;27;20355;-70
2022/10/06 11:15:37;;;;;;;;;;;22.30;46.80;20.90;102488.00;;;;5073494;28;19924;-70
2022/10/06 11:18:24;;;;;;;;;;;22.20;46.80;20.90;102491.00;;;;5082566;28;19919;-70
2022/10/06 11:21:13;;;;;;;;;;;22.20;46.70;20.90;102500.00;;;;5076487;28;20467;-70
2022/10/06 11:24:25;;;;;;;;;;;22.20;46.80;20.90;102498.00;;;;5085093;28;20219;-71
2022/10/06 11:27:34;;;;;;;;;;;22.20;46.70;20.90;102500.00;;;;5076607;28;19916;-70
2022/10/06 11:30:25;;;;;;;;;;;22.20;46.70;20.90;102505.00;;;;5047953;28;19920;-70
2022/10/06 11:33:18;;;;;;;;;;;22.20;46.70;20.90;102494.00;;;;5074255;28;19923;-71
2022/10/06 11:36:04;;;;;;;;;;;22.20;46.70;20.90;102502.00;;;;5068076;28;19931;-69
2022/10/06 11:39:18;;;;;;;;;;;22.20;46.60;20.90;102505.00;;;;5074957;28;20008;-70
2022/10/06 11:42:24;;;;;;;;;;;22.20;46.60;20.90;102505.00;;;;5071639;28;20313;-70
2022/10/06 11:45:14;;;;;;;;;;;22.20;46.60;20.90;102502.00;;;;5090176;28;20424;-70
2022/10/06 11:48:06;;;;;;;;;;;22.30;46.70;20.90;102507.00;;;;5073812;28;19924;-70
2022/10/06 11:51:15;;;;;;;;;;;22.30;46.60;20.90;102511.00;;;;5071430;28;20378;-72
2022/10/06 11:54:01;;;;;;;;;;;22.20;46.60;20.90;102497.00;;;;5073996;28;20654;-70
2022/10/06 11:56:47;;;;;;;;;;;22.30;46.70;21.00;102484.00;;;;5074103;28;19996;-70
2022/10/06 11:59:33;;;;;;;;;;;22.30;46.70;21.00;102490.00;;;;5081971;28;20197;-70
2022/10/06 12:02:28;;;;;;;;;;;22.30;46.60;21.00;102488.00;;;;5082431;28;20254;-70
2022/10/06 12:05:15;;;;;;;;;;;22.30;46.70;21.00;102490.00;;;;5079990;28;19951;-70
2022/10/06 12:08:01;;;;;;;;;;;22.30;46.70;21.00;102489.00;;;;5077401;28;20250;-70
2022/10/06 12:10:49;;;;;;;;;;;22.30;46.70;21.00;102482.00;;;;5083875;28;19920;-70
2022/10/06 12:13:41;;;;;;;;;;;22.30;46.70;21.00;102480.00;;;;5068846;28;19923;-70
2022/10/06 12:16:38;;;;;;;;;;;22.40;46.70;21.00;102469.00;;;;5075025;28;20383;-70
2022/10/06 12:19:45;;;;;;;;;;;22.30;46.70;21.10;102468.00;;;;5092984;28;20266;-70
2022/10/06 12:22:33;;;;;;;;;;;22.30;46.70;21.10;102467.00;;;;5058639;28;19920;-70
2022/10/06 12:25:25;;;;;;;;;;;22.50;46.70;21.10;102473.00;;;;5075868;28;19916;-70
2022/10/06 12:28:26;;;;;;;;;;;22.40;46.60;21.10;102472.00;;;;5074527;28;20415;-70
2022/10/06 12:31:26;;;;;;;;;;;22.40;46.50;21.10;102478.00;;;;5079344;28;19955;-70
2022/10/06 12:34:41;;;;;;;;;;;22.40;46.50;21.10;102471.00;;;;5100204;28;19927;-70
2022/10/06 12:37:42;;;;;;;;;;;22.40;46.50;21.10;102473.00;;;;5071524;28;19916;-70
2022/10/06 12:40:41;;;;;;;;;;;22.40;46.40;21.10;102475.00;;;;5064981;28;19920;-70
2022/10/06 12:43:48;;;;;;;;;;;22.50;46.40;21.10;102480.00;;;;5086516;28;20274;-70
2022/10/06 12:46:39;;;;;;;;;;;22.50;46.40;21.10;102472.00;;;;5076253;28;19916;-70
2022/10/06 12:49:37;;;;;;;;;;;22.40;46.30;21.00;102486.00;;;;5078071;28;19959;-70
2022/10/06 12:52:36;;;;;;;;;;;22.50;46.30;21.10;102485.00;;;;5075111;28;20244;-73
2022/10/06 12:55:50;;;;;;;;;;;22.40;46.20;21.00;102484.00;;;;5078907;28;19932;-74
2022/10/06 12:58:36;;;;;;;;;;;22.40;46.20;21.00;102483.00;;;;5084645;28;20059;-70
2022/10/06 13:01:22;;;;;;;;;;;22.40;46.20;21.00;102475.00;;;;5088716;28;19916;-70
2022/10/06 13:04:53;;;;;;;;;;;22.40;46.20;21.10;102480.00;;;;5045106;28;19959;-70
2022/10/06 13:07:56;;;;;;;;;;;22.50;46.30;21.00;102478.00;;;;4982270;28;20307;-70
2022/10/06 13:11:21;;;;;;;;;;;22.40;46.30;21.10;102474.00;;;;5072509;28;19920;-70
2022/10/06 13:14:08;;;;;;;;;;;22.40;46.20;21.10;102483.00;;;;5062009;28;19973;-71
2022/10/06 13:16:54;;;;;;;;;;;22.50;46.30;21.10;102480.00;;;;5094935;28;19924;-70
2022/10/06 13:19:42;;;;;;;;;;;22.50;46.10;21.10;102466.00;;;;5072075;28;19924;-70
2022/10/06 13:22:28;;;;;;;;;;;22.50;46.20;21.10;102472.00;;;;5074342;28;19921;-70
2022/10/06 13:25:15;;;;;;;;;;;22.50;46.10;21.10;102465.00;;;;5076881;28;20162;-70
2022/10/06 13:28:01;;;;;;;;;;;22.50;46.00;21.10;102457.00;;;;5058907;28;19920;-70
2022/10/06 13:30:51;;;;;;;;;;;22.50;46.00;21.10;102474.00;;;;5107018;28;20417;-71
2022/10/06 13:33:38;;;;;;;;;;;22.50;45.90;21.10;102472.00;;;;5071949;28;19920;-70
2022/10/06 13:36:27;;;;;;;;;;;22.50;45.90;21.10;102468.00;;;;5085221;28;19924;-70
2022/10/06 13:39:22;;;;;;;;;;;22.50;45.90;21.10;102466.00;;;;5085651;28;19920;-70
2022/10/06 13:42:19;;;;;;;;;;;22.50;45.90;21.10;102458.00;;;;5084276;28;20278;-70
2022/10/06 13:45:13;;;;;;;;;;;22.50;45.90;21.10;102475.00;;;;5072712;28;19966;-70
2022/10/06 13:48:07;;;;;;;;;;;22.50;45.80;21.10;102473.00;;;;5083970;28;19977;-70
2022/10/06 13:50:53;;;;;;;;;;;22.50;45.80;21.10;102471.00;;;;5093182;28;19924;-70
2022/10/06 13:53:39;;;;;;;;;;;22.40;45.70;21.10;102465.00;;;;5075064;28;19924;-70
2022/10/06 13:56:36;;;;;;;;;;;22.60;45.80;21.10;102468.00;;;;5073463;28;19924;-70